地図

経路データ

SID SEASON NUMBER BASIN SUBBASIN NAME ISO_TIME NATURE LAT LON WMO_WIND WMO_PRES WMO_AGENCY TRACK_TYPE DIST2LAND LANDFALL IFLAG USA_AGENCY USA_ATCF_ID USA_LAT USA_LON USA_RECORD USA_STATUS USA_WIND USA_PRES USA_SSHS USA_R34_NE USA_R34_SE USA_R34_SW USA_R34_NW USA_R50_NE USA_R50_SE USA_R50_SW USA_R50_NW USA_R64_NE USA_R64_SE USA_R64_SW USA_R64_NW USA_POCI USA_ROCI USA_RMW USA_EYE TOKYO_LAT TOKYO_LON TOKYO_GRADE TOKYO_WIND TOKYO_PRES TOKYO_R50_DIR TOKYO_R50_LONG TOKYO_R50_SHORT TOKYO_R30_DIR TOKYO_R30_LONG TOKYO_R30_SHORT TOKYO_LAND CMA_LAT CMA_LON CMA_CAT CMA_WIND CMA_PRES HKO_LAT HKO_LON HKO_CAT HKO_WIND HKO_PRES NEWDELHI_LAT NEWDELHI_LON NEWDELHI_GRADE NEWDELHI_WIND NEWDELHI_PRES NEWDELHI_CI NEWDELHI_DP NEWDELHI_POCI REUNION_LAT REUNION_LON REUNION_TYPE REUNION_WIND REUNION_PRES REUNION_TNUM REUNION_CI REUNION_RMW REUNION_R34_NE REUNION_R34_SE REUNION_R34_SW REUNION_R34_NW REUNION_R50_NE REUNION_R50_SE REUNION_R50_SW REUNION_R50_NW REUNION_R64_NE REUNION_R64_SE REUNION_R64_SW REUNION_R64_NW BOM_LAT BOM_LON BOM_TYPE BOM_WIND BOM_PRES BOM_TNUM BOM_CI BOM_RMW BOM_R34_NE BOM_R34_SE BOM_R34_SW BOM_R34_NW BOM_R50_NE BOM_R50_SE BOM_R50_SW BOM_R50_NW BOM_R64_NE BOM_R64_SE BOM_R64_SW BOM_R64_NW BOM_ROCI BOM_POCI BOM_EYE BOM_POS_METHOD BOM_PRES_METHOD NADI_LAT NADI_LON NADI_CAT NADI_WIND NADI_PRES WELLINGTON_LAT WELLINGTON_LON WELLINGTON_WIND WELLINGTON_PRES DS824_LAT DS824_LON DS824_STAGE DS824_WIND DS824_PRES TD9636_LAT TD9636_LON TD9636_STAGE TD9636_WIND TD9636_PRES TD9635_LAT TD9635_LON TD9635_WIND TD9635_PRES TD9635_ROCI NEUMANN_LAT NEUMANN_LON NEUMANN_CLASS NEUMANN_WIND NEUMANN_PRES MLC_LAT MLC_LON MLC_CLASS MLC_WIND MLC_PRES USA_GUST BOM_GUST BOM_GUST_PER REUNION_GUST REUNION_GUST_PER USA_SEAHGT USA_SEARAD_NE USA_SEARAD_SE USA_SEARAD_SW USA_SEARAD_NW STORM_SPEED STORM_DIR
1979137N19116 1979 38 WP MM NOT_NAMED 1979-05-17 00:00:00 TS 19.1000 115.700 main 386 382 O________OO___ jtwc_wp WP051979 19.1000 115.700 20 -1 19.1000 115.700 TC 20 19.1000 115.700 1 20 7 247
1979137N19116 1979 38 WP MM NOT_NAMED 1979-05-17 03:00:00 TS 18.9533 115.343 main 383 383 P________PP___ WP051979 18.9352 115.335 20 -1 18.9352 115.335 TC 20 18.9897 115.359 1 20 7 247
1979137N19116 1979 38 WP MM NOT_NAMED 1979-05-17 06:00:00 TS 18.8244 115.012 main 398 394 O________OP___ jtwc_wp WP051979 18.8000 115.000 20 -1 18.8000 115.000 TC 20 18.8732 115.035 1 20 6 248
1979137N19116 1979 38 WP MM NOT_NAMED 1979-05-17 09:00:00 TS 18.7200 114.728 main 399 384 P________PP___ WP051979 18.7074 114.720 20 -1 18.7074 114.720 TC 20 18.7451 114.743 1 20 5 245
1979137N19116 1979 38 WP MM NOT_NAMED 1979-05-17 12:00:00 TS 18.6000 114.500 main 384 368 O________OO___ jtwc_wp WP051979 18.6000 114.500 20 -1 18.6000 114.500 TC 20 18.6000 114.500 1 20 5 232
1979137N19116 1979 38 WP MM NOT_NAMED 1979-05-17 15:00:00 TS 18.4211 114.324 main 372 366 P________PP___ WP051979 18.4150 114.328 20 -1 18.4150 114.328 TC 20 18.4335 114.317 1 21 5 217
1979137N19116 1979 38 WP MM NOT_NAMED 1979-05-17 18:00:00 TS 18.2149 114.194 main 371 366 O________OP___ jtwc_wp WP051979 18.2000 114.200 20 -1 18.2000 114.200 TC 20 18.2447 114.183 1 22 5 209
1979137N19116 1979 38 WP MM NOT_NAMED 1979-05-17 21:00:00 TS 18.0162 114.089 main 372 368 P________PP___ WP051979 18.0075 114.093 22 -1 18.0075 114.093 TC 22 18.0336 114.082 1 23 5 204
1979137N19116 1979 38 WP MM NOT_NAMED 1979-05-18 00:00:00 TS 17.8000 114.000 main 374 372 O________OO___ jtwc_wp WP051979 17.8000 114.000 25 -1 17.8000 114.000 TC 25 17.8000 114.000 1 25 5 201
1979137N19116 1979 38 WP MM NOT_NAMED 1979-05-18 03:00:00 TS 17.5561 113.905 main 378 378 P________PP___ WP051979 17.5650 113.893 25 -1 17.5650 113.893 TC 25 17.5383 113.931 1 23 5 198
1979137N19116 1979 38 WP MM NOT_NAMED 1979-05-18 06:00:00 TS 17.2858 113.824 main 387 387 O________OP___ jtwc_wp WP051979 17.3000 113.800 25 -1 17.3000 113.800 TC 25 17.2573 113.873 1 22 6 192
1979137N19116 1979 38 WP MM NOT_NAMED 1979-05-18 09:00:00 TS 16.9909 113.773 main 403 399 P________PP___ WP051979 17.0000 113.758 22 -1 17.0000 113.758 TC 22 16.9727 113.803 1 21 6 191
1979137N19116 1979 38 WP MM NOT_NAMED 1979-05-18 12:00:00 TS 16.7000 113.700 main 412 410 O________OO___ jtwc_wp WP051979 16.7000 113.700 20 -1 16.7000 113.700 TC 20 16.7000 113.700 1 20 6 200
1979137N19116 1979 38 WP MM NOT_NAMED 1979-05-18 15:00:00 TS 16.4381 113.564 main 424 415 P________PP___ WP051979 16.4350 113.580 20 -1 16.4350 113.580 TC 20 16.4445 113.532 1 18 6 212
1979137N19116 1979 38 WP MM NOT_NAMED 1979-05-18 18:00:00 TS 16.2017 113.377 main 423 415 O________OP___ jtwc_wp WP051979 16.2000 113.400 20 -1 16.2000 113.400 TC 20 16.2051 113.330 1 17 6 222
1979137N19116 1979 38 WP MM NOT_NAMED 1979-05-18 21:00:00 TS 15.9861 113.143 main 416 412 P________PP___ WP051979 15.9850 113.157 17 -1 15.9850 113.157 TC 17 15.9882 113.113 1 16 7 229
1979137N19116 1979 38 WP MM NOT_NAMED 1979-05-19 00:00:00 TS 15.7385 112.831 1004 tokyo main 412 389 OO_______OO___ jtwc_wp WP051979 15.8000 112.900 15 -1 15.0000 112.000 2 1004 0 0 0 15.8000 112.900 TC 15 15.8000 112.900 1 15 7 230
1979137N19116 1979 38 WP MM NOT_NAMED 1979-05-19 03:00:00 TS 15.5452 112.595 main 386 363 PP_______PP___ WP051979 15.6350 112.685 15 -1 15.0000 112.000 2 1004 0 0 15.6350 112.685 TC 15 15.6381 112.714 1 15 5 230
1979137N19116 1979 38 WP MM NOT_NAMED 1979-05-19 06:00:00 TS 15.4013 112.409 1004 tokyo main 363 350 OO_______OP___ jtwc_wp WP051979 15.5000 112.500 15 -1 15.0000 112.000 2 1004 0 0 0 15.5000 112.500 TC 15 15.5049 112.535 1 15 4 232
1979137N19116 1979 38 WP MM NOT_NAMED 1979-05-19 09:00:00 TS 15.2948 112.262 main 350 327 PP_______PP___ WP051979 15.3925 112.343 15 -1 15.0000 112.000 2 1004 0 0 15.3925 112.343 TC 15 15.3943 112.364 1 15 4 232
1979137N19116 1979 38 WP MM NOT_NAMED 1979-05-19 12:00:00 TS 15.1529 112.082 1004 tokyo main 327 302 OOO______OO___ jtwc_wp WP051979 15.3000 112.200 15 -1 15.0000 112.000 2 1004 0 0 0 14.0000 111.000 0 17 1005 15.3000 112.200 TC 15 15.3000 112.200 1 15 4 232
1979137N19116 1979 38 WP MM NOT_NAMED 1979-05-19 15:00:00 TS 15.0325 111.915 main 302 292 PPP______PP___ WP051979 15.1925 112.050 15 -1 15.0000 112.000 2 1004 0 0 14.2475 111.102 0 18 1004 15.1925 112.050 TC 15 15.1375 111.966 1 16 4 237
1979137N19116 1979 38 WP MM NOT_NAMED 1979-05-19 18:00:00 TS 14.9631 111.779 1004 tokyo main 292 280 OOO______OP___ jtwc_wp WP051979 15.1000 111.900 15 -1 15.0000 112.000 2 1004 0 0 0 14.5000 111.200 0 19 1004 15.1000 111.900 TC 15 14.9999 111.751 1 17 3 247
1979137N19116 1979 38 WP MM NOT_NAMED 1979-05-19 21:00:00 TS 14.9244 111.655 main 280 269 PPP______PP___ WP051979 14.9825 111.683 17 -1 14.9625 111.993 2 1004 0 0 14.7574 111.305 0 21 1004 14.9825 111.683 TC 17 14.9373 111.610 1 18 1 288
1979137N19116 1979 38 WP MM NOT_NAMED 1979-05-20 00:00:00 TS 15.0000 111.660 1004 tokyo main 281 281 OOO______OO___ jtwc_wp WP051979 15.0000 111.600 20 -1 15.0000 112.000 2 1004 0 0 0 15.0000 111.500 1 23 1004 15.0000 111.600 TC 20 15.0000 111.600 1 20 4 34
1979137N19116 1979 38 WP MM NOT_NAMED 1979-05-20 03:00:00 TS 15.2384 111.870 main 306 306 PPP______PP___ WP051979 15.2826 111.825 20 -1 15.2050 112.020 2 1004 0 0 15.2002 111.878 1 23 1004 15.2826 111.825 TC 20 15.2217 111.804 1 20 8 42
1979137N19116 1979 38 WP MM NOT_NAMED 1979-05-20 06:00:00 TS 15.5742 112.187 1004 tokyo main 347 347 OOO______OP___ jtwc_wp WP051979 15.7000 112.200 20 -1 15.5000 112.100 2 1004 0 0 0 15.4000 112.300 1 23 1004 15.7000 112.200 TC 20 15.5708 112.137 1 20 9 43
1979137N19116 1979 38 WP MM NOT_NAMED 1979-05-20 09:00:00 TS 15.9064 112.514 main 384 370 PPP______PP___ WP051979 16.0701 112.572 20 -1 15.7700 112.263 2 1004 0 0 15.6125 112.638 1 26 1003 16.0701 112.572 TC 20 16.0093 112.526 1 20 10 40
1979137N19116 1979 38 WP MM NOT_NAMED 1979-05-20 12:00:00 TS 16.3000 112.820 1004 tokyo main 370 346 OOO______OO___ jtwc_wp WP051979 16.5000 112.900 20 -1 16.1000 112.500 2 1004 0 0 0 15.9000 112.900 1 29 1003 16.5000 112.900 TC 20 16.5000 112.900 1 20 10 29
1979137N19116 1979 38 WP MM NOT_NAMED 1979-05-20 15:00:00 TS 16.7815 113.014 main 346 328 PPP______PP___ WP051979 17.0348 113.058 20 -1 16.5125 112.770 2 1004 0 0 16.3199 113.058 1 29 1003 17.0348 113.058 TC 20 17.0057 113.126 1 20 11 20
1979137N19116 1979 38 WP MM NOT_NAMED 1979-05-20 18:00:00 TS 17.3098 113.206 1004 tokyo main 331 323 OOO______OP___ jtwc_wp WP051979 17.6000 113.200 20 -1 17.0000 113.100 2 1004 0 0 0 16.8000 113.200 1 29 1003 17.6000 113.200 TC 20 17.5492 113.329 1 20 11 23
1979137N19116 1979 38 WP MM NOT_NAMED 1979-05-20 21:00:00 TS 17.8306 113.476 main 331 320 PPP______PP___ WP051979 18.1299 113.462 20 -1 17.5425 113.478 2 1004 0 0 17.2575 113.435 1 29 1003 18.1299 113.462 TC 20 18.0932 113.542 1 20 12 29
1979137N19116 1979 38 WP MM NOT_NAMED 1979-05-21 00:00:00 TS 18.3200 113.800 1004 tokyo main 328 323 OOO______OO___ jtwc_wp WP051979 18.6000 113.800 20 -1 18.1000 113.900 2 1004 0 0 0 17.7000 113.700 1 29 1003 18.6000 113.800 TC 20 18.6000 113.800 1 20 11 35
1979137N19116 1979 38 WP MM NOT_NAMED 1979-05-21 03:00:00 TS 18.7357 114.156 main 350 347 PPP______PP___ WP051979 18.9650 114.185 20 -1 18.6150 114.358 2 1004 0 0 18.1074 113.928 1 29 1003 18.9650 114.185 TC 20 19.0259 114.122 1 20 11 41
1979137N19116 1979 38 WP MM NOT_NAMED 1979-05-21 06:00:00 TS 19.1219 114.539 1004 tokyo main 349 319 OOO______OP___ jtwc_wp WP051979 19.3000 114.600 20 -1 19.1000 114.800 2 1004 0 0 0 18.5000 114.200 1 29 1003 19.3000 114.600 TC 20 19.4094 114.496 1 20 11 43
1979137N19116 1979 38 WP MM NOT_NAMED 1979-05-21 09:00:00 TS 19.5225 114.921 main 319 287 PPP______PP___ WP051979 19.6923 114.985 20 -1 19.5722 115.150 2 1004 0 0 18.8924 114.563 1 29 1003 19.6923 114.985 TC 20 19.7632 114.922 1 20 11 43
1979137N19116 1979 38 WP MM NOT_NAMED 1979-05-21 12:00:00 TS 19.9200 115.340 1004 tokyo main 287 259 OOO______OO___ jtwc_wp WP051979 20.1000 115.400 20 -1 20.0000 115.500 2 1004 0 0 0 19.3000 115.000 1 29 1003 20.1000 115.400 TC 20 20.1000 115.400 1 20 12 45
1979137N19116 1979 38 WP MM NOT_NAMED 1979-05-21 15:00:00 TS 20.3322 115.797 main 263 229 PPP______PP___ WP051979 20.5223 115.863 20 -1 20.3871 115.890 2 1002 0 0 19.7498 115.463 1 29 1001 20.5223 115.863 TC 20 20.4797 115.908 1 20 12 50
1979137N19116 1979 38 WP MM NOT_NAMED 1979-05-21 18:00:00 TS 20.7028 116.341 1000 tokyo main 229 216 OOOO_____OP___ jtwc_wp WP051979 20.9000 116.400 20 -1 20.7000 116.400 2 1000 0 0 0 20.2000 116.000 1 29 1000 20.6000 116.500 TD 30 1000 20.9000 116.400 TC 20 20.8395 116.467 1 20 13 58
1979137N19116 1979 38 WP MM NOT_NAMED 1979-05-21 21:00:00 TS 21.0081 116.966 main 218 207 PPPP_____PP___ WP051979 21.1950 117.028 20 -1 20.9228 117.113 2 999 0 0 20.6451 116.635 1 29 1000 20.8649 116.886 TD 30 1000 21.1950 117.028 TC 20 21.1545 117.067 1 20 13 65
1979137N19116 1979 38 WP MM NOT_NAMED 1979-05-22 00:00:00 TS 21.2522 117.626 998 tokyo main 211 211 OOOO_____OO___ jtwc_wp WP051979 21.4000 117.700 20 -1 21.1000 117.900 2 998 0 0 0 21.0000 117.300 1 29 1000 21.2000 117.400 TD 30 1000 21.4000 117.700 TC 20 21.4000 117.700 1 20 13 70
1979137N19116 1979 38 WP MM NOT_NAMED 1979-05-22 03:00:00 TS 21.4557 118.266 main 234 175 PPPP_____PP___ WP051979 21.5297 118.343 20 -1 21.3220 118.600 2 998 0 0 21.1943 117.878 1 29 1000 21.6175 118.131 TD 30 1000 21.5297 118.343 TC 20 21.5410 118.300 1 21 13 75
1979137N19116 1979 38 WP MM NOT_NAMED 1979-05-22 06:00:00 TS 21.5858 118.955 998 tokyo main 167 118 OOOO_____OP___ jtwc_wp WP051979 21.6000 119.000 20 -1 21.5000 119.300 2 998 0 0 0 21.3000 118.500 1 29 1000 21.9000 119.000 TD 30 1000 21.6000 119.000 TC 20 21.6145 118.933 1 22 13 83
1979137N19116 1979 38 WP MM NOT_NAMED 1979-05-22 09:00:00 TS 21.6240 119.688 main 108 45 PPPP_____PP___ WP051979 21.6568 119.655 22 -1 21.5723 120.043 2 998 0 0 21.4074 119.263 1 29 999 21.7947 119.887 TD 30 999 21.6568 119.655 TC 22 21.6560 119.625 1 23 14 88
1979137N19116 1979 38 WP MM NOT_NAMED 1979-05-22 12:00:00 TS 21.6333 120.483 998 tokyo main 39 22 OOOO_____OO___ jtwc_wp WP051979 21.7000 120.400 25 -1 21.6000 120.800 2 998 0 0 0 21.5000 120.100 1 29 999 21.6000 120.800 TD 30 998 21.7000 120.400 TC 25 21.7000 120.400 1 25 15 88
1979137N19116 1979 38 WP MM NOT_NAMED 1979-05-22 15:00:00 TS 21.6837 121.326 main 46 46 PPPP_____PP___ WP051979 21.7349 121.305 25 -1 21.6488 121.498 2 998 0 0 21.5986 120.883 1 33 998 21.6044 121.692 TD 30 998 21.7349 121.305 TC 25 21.7804 121.273 1 25 17 86
1979137N19116 1979 38 WP MM NOT_NAMED 1979-05-22 18:00:00 TS 21.7616 122.255 998 tokyo main 144 144 OOOO_____OP___ jtwc_wp WP051979 21.8000 122.300 25 -1 21.7000 122.300 2 998 0 0 0 21.7000 121.800 2 38 998 21.7000 122.600 TD 30 998 21.8000 122.300 TC 25 21.8695 122.232 1 25 18 84
1979137N19116 1979 38 WP MM NOT_NAMED 1979-05-22 21:00:00 TS 21.8650 123.286 main 236 236 PPPP_____PP___ WP051979 21.9270 123.293 25 -1 21.7356 123.370 2 998 0 0 21.7774 122.976 2 38 996 21.8495 123.535 TD 30 997 21.9270 123.293 TC 25 21.9736 123.249 1 25 20 83
1979137N19116 1979 38 WP MM NOT_NAMED 1979-05-23 00:00:00 TS 22.0000 124.367 998 tokyo main 331 331 OOOO_____OO___ jtwc_wp WP051979 22.1000 124.300 25 -1 21.8000 124.500 2 998 0 0 0 21.9000 124.300 2 38 995 22.0000 124.500 TD 30 997 22.1000 124.300 TC 25 22.1000 124.300 1 25 20 82
1979137N19116 1979 38 WP MM NOT_NAMED 1979-05-23 03:00:00 TS 22.1458 125.428 main 425 425 PPPP_____PP___ WP051979 22.2990 125.278 27 -1 21.9191 125.473 2 995 0 0 22.1204 125.687 2 38 995 22.0422 125.501 TD 30 996 22.2990 125.278 TC 27 22.1955 125.349 1 26 20 81
1979137N19116 1979 38 WP MM NOT_NAMED 1979-05-23 06:00:00 TS 22.3202 126.488 35 992 tokyo main 529 529 OOOO_____OP___ jtwc_wp WP051979 22.5000 126.300 30 -1 22.1000 126.400 3 35 992 0 9 30 30 0 22.4000 127.000 2 38 995 22.1000 126.500 TD 30 995 22.5000 126.300 TC 30 22.3210 126.425 1 27 20 80
1979137N19116 1979 38 WP MM NOT_NAMED 1979-05-23 09:00:00 TS 22.4960 127.526 main 612 612 PPPP_____PP___ WP051979 22.6196 127.429 30 -1 22.3115 127.328 3 37 992 0 9 40 40 22.6983 128.053 2 38 995 22.2158 127.407 TD 30 995 22.6196 127.429 TC 30 22.5109 127.513 1 28 20 77
1979137N19116 1979 38 WP MM NOT_NAMED 1979-05-23 12:00:00 TS 22.7500 128.583 40 992 tokyo main 707 707 OOOO_____OO___ jtwc_wp WP051979 22.8000 128.600 30 -1 22.6000 128.300 3 40 992 0 9 50 50 0 23.0000 129.000 2 38 995 22.5000 128.400 TD 30 995 22.8000 128.600 TC 30 22.8000 128.600 1 30 21 73
1979137N19116 1979 38 WP MM NOT_NAMED 1979-05-23 15:00:00 TS 23.1043 129.731 main 808 808 PPPP_____PP___ WP051979 23.1247 129.773 30 -1 22.9549 129.385 3 40 992 0 9 50 50 23.2350 130.038 2 33 996 23.0113 129.699 TD 30 996 23.1247 129.773 TC 30 23.1755 129.716 1 28 22 68
1979137N19116 1979 38 WP MM NOT_NAMED 1979-05-23 18:00:00 MX 23.5759 130.854 40 992 tokyo main 826 778 OOOO_____OP___ jtwc_wp WP051979 23.6000 130.900 30 -1 23.4000 130.500 3 40 992 0 9 50 50 0 23.5000 131.000 9 29 998 23.7000 131.000 TD 30 997 23.6000 130.900 TC 30 23.6553 130.826 1 27 22 62
1979137N19116 1979 38 WP MM NOT_NAMED 1979-05-23 21:00:00 MX 24.1397 131.861 main 779 727 PPPP_____PP___ WP051979 24.1821 131.960 27 -1 23.9118 131.566 3 37 994 0 9 50 50 23.8459 131.751 9 29 998 24.4838 132.033 TD 30 998 24.1821 131.960 TC 27 24.2322 131.898 1 26 21 56
1979137N19116 1979 38 WP MM NOT_NAMED 1979-05-24 00:00:00 MX 24.7783 132.778 35 996 tokyo main 722 682 OOOO_____OO___ jtwc_wp WP051979 24.9000 132.900 25 -1 24.5000 132.600 3 35 996 0 9 50 50 0 24.3000 132.500 9 29 998 25.3000 132.900 TD 30 1000 24.9000 132.900 TC 25 24.9000 132.900 1 25 21 51
1979137N19116 1979 38 WP MM NOT_NAMED 1979-05-24 03:00:00 MX 25.4635 133.640 main 676 645 PPPP_____PP___ WP051979 25.7261 133.667 25 -1 25.1267 133.609 3 998 0 9 24.8101 133.464 9 29 999 26.0309 133.671 TD 27 1000 25.7261 133.667 TC 25 25.6449 133.778 1 25 21 47
1979137N19116 1979 38 WP MM NOT_NAMED 1979-05-24 06:00:00 MX 26.2188 134.493 1000 tokyo main 651 619 OOOO_____OP___ jtwc_wp WP051979 26.6000 134.400 25 -1 25.8000 134.600 6 1000 0 0 0 25.5000 134.500 9 29 1000 26.7000 134.400 TD 25 1000 26.6000 134.400 TC 25 26.4737 134.590 1 25 22 46
1979137N19116 1979 38 WP MM NOT_NAMED 1979-05-24 09:00:00 MX 27.0095 135.394 main 625 616 PPP______PP___ WP051979 27.4073 135.278 25 -1 26.4760 135.565 6 1002 0 0 26.4161 135.465 9 29 1000 TD 27.4073 135.278 TC 25 27.3409 135.382 1 25 23 47
1979137N19116 1979 38 WP MM NOT_NAMED 1979-05-24 12:00:00 MX 27.8000 136.365 1004 tokyo main 627 556 OOO______OO___ jtwc_wp WP051979 28.2000 136.200 25 -1 27.2000 136.600 6 1004 0 0 0 27.5000 136.500 9 29 1000 28.2000 136.200 TC 25 28.2000 136.200 1 25 24 48
1979137N19116 1979 38 WP MM NOT_NAMED 1979-05-24 15:00:00 MX 28.6194 137.448 main 556 519 PPP______PP___ WP051979 28.9984 137.105 25 -1 27.9541 137.785 6 1004 0 0 28.7074 137.637 9 29 1001 28.9984 137.105 TC 25 29.0156 137.078 1 25 27 52
1979137N19116 1979 38 WP MM NOT_NAMED 1979-05-24 18:00:00 MX 29.4364 138.764 1004 tokyo main 529 521 OOO______OO___ jtwc_wp WP051979 29.8000 138.000 25 -1 28.8000 139.100 6 1004 0 0 0 29.8000 139.000 9 29 1002 29.8000 138.000 TC 25 29.8000 138.000 6 25 32 61
1979137N19116 1979 38 WP MM NOT_NAMED 1979-05-24 21:00:00 ET 30.1724 140.635 main 518 493 _PP___________ WP051979 -1 29.8144 140.519 6 1004 0 0 30.5304 140.751 9 29 1003 TC 6 34 64
1979137N19116 1979 38 WP MM NOT_NAMED 1979-05-25 00:00:00 ET 30.9000 142.250 1004 tokyo main 498 493 _OO___________ -1 30.8000 142.000 6 1004 0 0 0 31.0000 142.500 9 29 1004 29 64
1979137N19116 1979 38 WP MM NOT_NAMED 1979-05-25 03:00:00 ET 31.4369 143.722 main 522 519 _PP___________ -1 31.5916 143.577 6 1006 0 0 31.2822 143.868 9 26 1005 25 67
1979137N19116 1979 38 WP MM NOT_NAMED 1979-05-25 06:00:00 ET 31.9000 144.950 1008 tokyo main 562 562 _OO___________ -1 32.2000 144.900 6 1008 0 0 0 31.6000 145.000 9 23 1006 21 61
1979137N19116 1979 38 WP MM NOT_NAMED 1979-05-25 09:00:00 ET 32.4478 145.838 main 581 581 _PP___________ -1 32.6264 145.602 6 1008 0 0 32.2691 146.073 9 21 1007 17 51
1979137N19116 1979 38 WP MM NOT_NAMED 1979-05-25 12:00:00 ET 33.0000 146.550 1008 tokyo main 602 596 _OO___________ -1 33.0000 146.100 6 1008 0 0 0 33.0000 147.000 9 19 1008 16 50
1979137N19116 1979 38 WP MM NOT_NAMED 1979-05-25 15:00:00 ET 33.5107 147.334 main 633 633 _PP___________ -1 33.4927 146.877 6 1009 0 0 33.5287 147.790 9 18 1008 16 51
1979137N19116 1979 38 WP MM NOT_NAMED 1979-05-25 18:00:00 ET 34.0000 148.043 1010 tokyo main 673 673 _OO___________ -1 34.0000 147.700 6 1010 0 0 0 34.0000 148.500 9 17 1008 15 50
1979137N19116 1979 38 WP MM NOT_NAMED 1979-05-25 21:00:00 ET 34.4633 148.713 main 720 720 _PP___________ -1 34.4493 148.451 6 1010 0 0 34.4914 149.235 9 17 1009 14 50
1979137N19116 1979 38 WP MM NOT_NAMED 1979-05-26 00:00:00 ET 34.9200 149.360 1010 tokyo main 774 772 _OO___________ -1 34.9000 149.200 6 1010 0 0 0 35.0000 150.000 9 17 1010 14 48
1979137N19116 1979 38 WP MM NOT_NAMED 1979-05-26 03:00:00 ET 35.3913 149.956 main 820 820 _P____________ -1 35.3913 149.956 6 1010 0 0 9 15 50
1979137N19116 1979 38 WP MM NOT_NAMED 1979-05-26 06:00:00 ET 35.9000 150.800 1010 tokyo main 861 861 _O____________ -1 35.9000 150.800 6 1010 0 0 0 18 56
1979137N19116 1979 38 WP MM NOT_NAMED 1979-05-26 09:00:00 ET 36.3848 151.807 main 915 915 _P____________ -1 36.3848 151.807 6 1010 0 0 20 59
1979137N19116 1979 38 WP MM NOT_NAMED 1979-05-26 12:00:00 ET 36.9000 152.900 1010 tokyo main 940 937 _O____________ -1 36.9000 152.900 6 1010 0 0 0 21 58
1979137N19116 1979 38 WP MM NOT_NAMED 1979-05-26 15:00:00 ET 37.4817 153.999 main 957 941 _P____________ -1 37.4817 153.999 6 1010 0 0 21 55
1979137N19116 1979 38 WP MM NOT_NAMED 1979-05-26 18:00:00 ET 38.1000 155.100 1010 tokyo main 945 _O____________ -1 38.1000 155.100 6 1010 0 0 0 21 54

デジタル台風データ・検索

IBTrACS Databaseについて

本データベースは、米国NOAAが公開する1842年以降の世界の熱帯低気圧のベストトラックデータアーカイブInternational Best Track Archive for Climate Stewardship (IBTrACS)を、ウェブで閲覧しやすい形式に変換したものです。

最終更新日:2021-12-08